createdAt,value
2023-03-15T00:00:36.022Z,4.97
2023-03-15T00:05:32.924Z,5.10
2023-03-15T00:08:14.828Z,6.78
2023-03-15T00:10:52.628Z,4.55
2023-03-15T00:13:25.996Z,5.72
2023-03-15T00:19:32.820Z,4.40
2023-03-15T00:22:26.439Z,4.72
2023-03-15T00:24:53.461Z,3.97
2023-03-15T00:27:20.429Z,4.43
2023-03-15T00:29:47.511Z,4.22
2023-03-15T00:32:14.386Z,4.65
2023-03-15T00:34:41.263Z,5.40
2023-03-15T00:37:08.441Z,3.90
2023-03-15T00:39:40.319Z,4.82
2023-03-15T00:42:07.446Z,4.35
2023-03-15T00:44:34.375Z,5.20
2023-03-15T00:47:01.073Z,4.30
2023-03-15T00:49:28.263Z,4.78
2023-03-15T00:51:56.086Z,4.30
2023-03-15T00:54:24.111Z,4.32
2023-03-15T00:56:51.361Z,4.93
2023-03-15T00:59:22.487Z,4.13
2023-03-15T01:01:49.297Z,4.25
2023-03-15T01:04:16.143Z,4.38
2023-03-15T01:06:45.302Z,4.20
2023-03-15T01:09:12.152Z,4.75
2023-03-15T01:11:42.136Z,3.75
2023-03-15T01:14:09.824Z,4.00
2023-03-15T01:16:36.949Z,4.00
2023-03-15T01:19:03.924Z,4.50
2023-03-15T01:21:34.225Z,5.25
2023-03-15T01:24:01.233Z,5.65
2023-03-15T01:26:28.198Z,4.53
2023-03-15T01:28:55.453Z,6.25
2023-03-15T01:31:25.331Z,4.70
2023-03-15T01:33:55.512Z,5.10
2023-03-15T01:36:22.432Z,5.18
2023-03-15T01:38:58.803Z,4.80
2023-03-15T01:41:27.605Z,4.88
2023-03-15T01:43:54.450Z,5.20
2023-03-15T01:46:34.969Z,5.00
2023-03-15T01:49:37.354Z,5.07
2023-03-15T01:52:13.150Z,5.38
2023-03-15T01:55:15.844Z,5.00
2023-03-15T01:57:47.437Z,5.22
2023-03-15T02:00:20.108Z,4.97
2023-03-15T02:02:52.169Z,5.28
2023-03-15T02:05:22.421Z,5.40
2023-03-15T02:07:54.936Z,5.75
2023-03-15T02:10:32.092Z,5.28
2023-03-15T02:12:59.882Z,5.25
2023-03-15T02:15:27.442Z,5.35
2023-03-15T02:17:54.175Z,6.75
2023-03-15T02:20:27.744Z,6.18
2023-03-15T02:23:09.041Z,5.43
2023-03-15T02:26:00.741Z,6.10
2023-03-15T02:28:28.356Z,5.72
2023-03-15T02:30:55.416Z,6.05
2023-03-15T02:33:37.133Z,5.78
2023-03-15T02:36:21.242Z,7.38
2023-03-15T02:38:49.517Z,6.05
2023-03-15T02:41:43.204Z,6.32
2023-03-15T02:44:17.372Z,6.85
2023-03-15T02:46:46.507Z,7.43
2023-03-15T02:49:14.266Z,6.40
2023-03-15T02:51:41.289Z,5.30
2023-03-15T02:54:08.145Z,6.50
2023-03-15T02:56:35.202Z,6.75
2023-03-15T02:59:04.734Z,6.38
2023-03-15T03:01:31.847Z,7.05
2023-03-15T03:03:58.769Z,6.95
2023-03-15T03:06:25.649Z,6.53
2023-03-15T03:08:52.504Z,6.38
2023-03-15T03:11:19.470Z,6.53
2023-03-15T03:13:46.678Z,6.20
2023-03-15T03:16:13.834Z,6.97
2023-03-15T03:18:42.423Z,7.60
2023-03-15T03:21:10.185Z,7.55
2023-03-15T03:23:38.779Z,8.10
2023-03-15T03:26:18.043Z,8.15
2023-03-15T03:28:50.141Z,7.10
2023-03-15T03:31:22.765Z,7.38
2023-03-15T03:33:49.751Z,6.72
2023-03-15T03:36:16.905Z,7.78
2023-03-15T03:38:46.193Z,7.35
2023-03-15T03:41:14.151Z,6.55
2023-03-15T03:43:41.300Z,8.18
2023-03-15T03:46:08.165Z,7.38
2023-03-15T03:48:35.158Z,8.50
2023-03-15T03:51:02.357Z,9.73
2023-03-15T03:53:29.093Z,8.80
2023-03-15T03:55:55.982Z,8.00
2023-03-15T03:58:23.076Z,7.97
2023-03-15T04:00:54.458Z,9.13
2023-03-15T04:03:27.435Z,8.88
2023-03-15T04:05:55.244Z,10.27
2023-03-15T04:08:23.352Z,9.60
2023-03-15T04:10:53.538Z,8.82
2023-03-15T04:13:24.269Z,8.77
2023-03-15T04:15:51.948Z,9.40
2023-03-15T04:18:19.156Z,9.30
2023-03-15T04:20:47.814Z,9.90
2023-03-15T04:23:19.494Z,9.05
2023-03-15T04:25:49.739Z,8.27
2023-03-15T04:28:17.202Z,8.77
2023-03-15T04:30:46.861Z,8.27
2023-03-15T04:33:13.802Z,7.47
2023-03-15T04:35:42.838Z,7.88
2023-03-15T04:38:10.010Z,8.95
2023-03-15T04:40:37.025Z,8.52
2023-03-15T04:43:05.310Z,8.50
2023-03-15T04:45:35.016Z,8.63
2023-03-15T04:48:02.535Z,9.40
2023-03-15T04:53:11.665Z,10.30
2023-03-15T04:55:40.461Z,8.88
2023-03-15T04:58:07.297Z,8.90
2023-03-15T05:00:34.389Z,8.77
2023-03-15T05:03:02.167Z,9.18
2023-03-15T05:05:29.698Z,8.73
2023-03-15T05:07:56.659Z,8.13
2023-03-15T05:10:23.542Z,7.75
2023-03-15T05:12:50.346Z,7.85
2023-03-15T05:15:17.692Z,8.07
2023-03-15T05:17:46.579Z,8.70
2023-03-15T05:20:14.998Z,7.13
2023-03-15T05:22:45.155Z,7.53
2023-03-15T05:25:12.186Z,8.23
2023-03-15T05:27:39.127Z,8.05
2023-03-15T05:30:07.650Z,7.05
2023-03-15T05:32:34.918Z,7.22
2023-03-15T05:35:02.414Z,7.20
2023-03-15T05:37:29.778Z,7.30
2023-03-15T05:39:56.788Z,8.57
2023-03-15T05:42:26.355Z,7.68
2023-03-15T05:44:53.934Z,7.85
2023-03-15T05:47:21.247Z,7.88
2023-03-15T05:49:48.250Z,6.82
2023-03-15T05:52:18.931Z,7.32
2023-03-15T05:54:46.524Z,7.32
2023-03-15T05:57:13.777Z,8.05
2023-03-15T05:59:40.766Z,6.85
2023-03-15T06:02:07.975Z,7.20
2023-03-15T06:04:35.074Z,6.78
2023-03-15T06:07:02.129Z,8.45
2023-03-15T06:09:29.198Z,6.15
2023-03-15T06:11:56.248Z,6.88
2023-03-15T06:14:24.123Z,6.97
2023-03-15T06:16:56.547Z,6.72
2023-03-15T06:19:25.639Z,8.73
2023-03-15T06:21:52.709Z,7.95
2023-03-15T06:24:19.751Z,7.60
2023-03-15T06:26:46.931Z,7.18
2023-03-15T06:29:14.259Z,8.63
2023-03-15T06:31:41.422Z,7.53
2023-03-15T06:34:15.737Z,7.45
2023-03-15T06:36:46.061Z,6.15
2023-03-15T06:39:13.611Z,8.05
2023-03-15T06:41:42.055Z,8.30
2023-03-15T06:44:12.351Z,8.00
2023-03-15T06:46:50.376Z,8.65
2023-03-15T06:49:33.994Z,7.63
2023-03-15T06:52:25.330Z,8.05
2023-03-15T06:54:53.768Z,7.22
2023-03-15T06:57:23.289Z,7.75
2023-03-15T06:59:54.261Z,6.70
2023-03-15T07:02:21.723Z,6.75
2023-03-15T07:04:51.848Z,7.90
2023-03-15T07:07:21.197Z,7.93
2023-03-15T07:09:51.137Z,8.07
2023-03-15T07:12:18.705Z,8.25
2023-03-15T07:14:46.979Z,7.38
2023-03-15T07:17:16.948Z,7.82
2023-03-15T07:19:55.924Z,8.38
2023-03-15T07:22:27.043Z,7.40
2023-03-15T07:25:01.565Z,7.40
2023-03-15T07:27:29.622Z,7.97
2023-03-15T07:29:58.664Z,6.75
2023-03-15T07:32:27.777Z,8.63
2023-03-15T07:35:00.836Z,8.38
2023-03-15T07:37:29.569Z,8.68
2023-03-15T07:40:01.477Z,7.93
2023-03-15T07:42:28.598Z,7.38
2023-03-15T07:44:55.485Z,7.05
2023-03-15T07:47:22.812Z,7.63
2023-03-15T07:49:52.622Z,7.95
2023-03-15T07:52:21.961Z,7.55
2023-03-15T07:54:49.023Z,8.52
2023-03-15T07:57:17.085Z,8.07
2023-03-15T07:59:46.676Z,7.18
2023-03-15T08:02:16.912Z,7.43
2023-03-15T08:04:50.067Z,6.75
2023-03-15T08:07:20.140Z,7.22
2023-03-15T08:09:50.354Z,6.97
2023-03-15T08:12:23.498Z,6.60
2023-03-15T08:14:51.844Z,6.50
2023-03-15T08:17:19.114Z,8.15
2023-03-15T08:19:48.733Z,7.80
2023-03-15T08:22:16.601Z,9.43
2023-03-15T08:24:43.492Z,10.32
2023-03-15T08:27:11.309Z,7.90
2023-03-15T08:29:43.678Z,8.23
2023-03-15T08:32:10.728Z,7.63
2023-03-15T08:34:37.864Z,9.20
2023-03-15T08:37:04.942Z,7.22
2023-03-15T08:39:31.736Z,7.72
2023-03-15T08:41:58.995Z,7.97
2023-03-15T08:44:25.918Z,6.07
2023-03-15T08:46:52.978Z,6.93
2023-03-15T08:49:22.770Z,8.80
2023-03-15T08:51:49.954Z,8.52
2023-03-15T08:54:19.712Z,8.23
2023-03-15T08:56:46.720Z,9.25
2023-03-15T08:59:29.035Z,6.80
2023-03-15T09:02:03.298Z,8.43
2023-03-15T09:04:30.892Z,8.88
2023-03-15T09:06:57.741Z,7.53
2023-03-15T09:09:24.796Z,8.77
2023-03-15T09:11:54.674Z,7.70
2023-03-15T09:14:24.697Z,7.95
2023-03-15T09:16:52.393Z,7.38
2023-03-15T09:19:21.778Z,7.53
2023-03-15T09:21:51.737Z,7.95
2023-03-15T09:24:18.939Z,9.35
2023-03-15T09:26:46.066Z,9.63
2023-03-15T09:29:13.016Z,9.02
2023-03-15T09:31:42.267Z,9.63
2023-03-15T09:34:09.361Z,10.63
2023-03-15T09:36:39.139Z,10.13
2023-03-15T09:39:06.291Z,10.60
2023-03-15T09:41:42.103Z,9.68
2023-03-15T09:44:21.621Z,9.30
2023-03-15T09:47:20.309Z,9.95
2023-03-15T09:50:16.837Z,10.65
2023-03-15T09:52:49.787Z,10.95
2023-03-15T09:55:28.878Z,11.02
2023-03-15T09:58:02.192Z,11.85
2023-03-15T10:00:35.146Z,10.95
2023-03-15T10:03:07.233Z,11.23
2023-03-15T10:05:42.065Z,10.90
2023-03-15T10:08:14.200Z,11.73
2023-03-15T10:10:50.496Z,11.00
2023-03-15T10:13:26.247Z,10.02
2023-03-15T10:16:24.256Z,11.15
2023-03-15T10:18:54.194Z,10.60
2023-03-15T10:21:42.142Z,10.45
2023-03-15T10:24:18.849Z,9.13
2023-03-15T10:29:16.463Z,10.18
2023-03-15T10:31:46.765Z,9.95
2023-03-15T10:34:15.962Z,10.80
2023-03-15T10:36:55.626Z,9.85
2023-03-15T10:39:23.503Z,9.65
2023-03-15T10:41:51.783Z,8.73
2023-03-15T10:44:25.484Z,10.00
2023-03-15T10:47:24.393Z,10.05
2023-03-15T10:49:57.801Z,10.88
2023-03-15T10:52:39.615Z,9.77
2023-03-15T10:55:12.320Z,11.13
2023-03-15T10:57:54.682Z,11.82
2023-03-15T11:00:32.904Z,13.23
2023-03-15T11:03:18.339Z,9.77
2023-03-15T11:05:49.053Z,10.18
2023-03-15T11:08:19.587Z,9.43
2023-03-15T11:10:56.476Z,10.18
2023-03-15T11:13:33.584Z,11.10
2023-03-15T11:16:04.306Z,10.68
2023-03-15T11:18:33.119Z,9.75
2023-03-15T11:21:07.375Z,9.18
2023-03-15T11:23:37.588Z,8.73
2023-03-15T11:26:08.675Z,9.32
2023-03-15T11:28:37.758Z,8.27
2023-03-15T11:31:08.766Z,8.02
2023-03-15T11:33:44.301Z,7.78
2023-03-15T11:38:45.392Z,8.48
2023-03-15T11:41:48.552Z,9.02
2023-03-15T11:44:48.550Z,8.23
2023-03-15T11:47:24.152Z,9.05
2023-03-15T11:49:58.351Z,11.13
2023-03-15T11:52:27.810Z,10.63
2023-03-15T11:55:01.695Z,9.98
2023-03-15T11:57:47.552Z,9.65
2023-03-15T12:00:35.065Z,10.00
2023-03-15T12:03:24.198Z,11.50
2023-03-15T12:06:13.353Z,9.02
2023-03-15T12:08:44.112Z,9.30
2023-03-15T12:11:13.728Z,8.77
2023-03-15T12:13:57.095Z,8.20
2023-03-15T12:16:27.476Z,9.48
2023-03-15T12:18:58.227Z,9.93
2023-03-15T12:21:37.976Z,9.57
2023-03-15T12:24:07.465Z,10.40
2023-03-15T12:27:00.543Z,10.68
2023-03-15T12:29:30.813Z,11.52
2023-03-15T12:32:00.653Z,11.50
2023-03-15T12:34:44.783Z,9.75
2023-03-15T12:37:18.907Z,8.13
2023-03-15T12:39:52.358Z,8.38
2023-03-15T12:42:31.750Z,8.48
2023-03-15T12:45:20.857Z,9.43
2023-03-15T12:47:51.179Z,8.80
2023-03-15T12:50:38.165Z,9.38
2023-03-15T12:53:20.535Z,10.27
2023-03-15T12:55:56.647Z,7.72
2023-03-15T12:58:30.171Z,6.85
2023-03-15T13:01:05.920Z,8.23
2023-03-15T13:03:38.088Z,8.40
2023-03-15T13:06:22.502Z,7.28
2023-03-15T13:09:12.313Z,6.70
2023-03-15T13:11:43.905Z,6.63
2023-03-15T13:14:16.682Z,6.53
2023-03-15T13:16:48.595Z,6.72
2023-03-15T13:19:20.427Z,6.97
2023-03-15T13:22:23.246Z,7.97
2023-03-15T13:25:17.861Z,6.72
2023-03-15T13:27:59.980Z,6.43
2023-03-15T13:30:39.104Z,5.65
2023-03-15T13:33:20.567Z,6.70
2023-03-15T13:36:06.402Z,6.35
2023-03-15T13:38:37.790Z,6.93
2023-03-15T13:41:06.444Z,6.20
2023-03-15T13:43:38.907Z,6.28
2023-03-15T13:46:06.446Z,5.82
2023-03-15T13:48:35.915Z,5.97
2023-03-15T13:51:24.937Z,5.72
2023-03-15T13:53:56.912Z,5.40
2023-03-15T13:56:49.276Z,5.13
2023-03-15T13:59:20.173Z,6.25
2023-03-15T14:01:50.267Z,4.93
2023-03-15T14:04:18.734Z,5.35
2023-03-15T14:06:46.194Z,6.38
2023-03-15T14:09:23.652Z,7.88
2023-03-15T14:12:05.444Z,7.25
2023-03-15T14:14:36.486Z,7.00
2023-03-15T14:17:17.693Z,8.60
2023-03-15T14:19:54.483Z,6.93
2023-03-15T14:22:24.226Z,7.65
2023-03-15T14:24:52.399Z,7.00
2023-03-15T14:27:23.202Z,7.40
2023-03-15T14:29:53.870Z,8.45
2023-03-15T14:32:24.203Z,9.20
2023-03-15T14:35:04.435Z,8.70
2023-03-15T14:37:46.910Z,8.95
2023-03-15T14:40:19.510Z,8.52
2023-03-15T14:42:52.534Z,8.38
2023-03-15T14:45:22.646Z,8.95
2023-03-15T14:47:57.543Z,8.38
2023-03-15T14:52:52.678Z,8.38
2023-03-15T14:55:28.426Z,9.93
2023-03-15T14:57:55.864Z,9.77
2023-03-15T15:00:26.253Z,9.18
2023-03-15T15:02:56.453Z,8.88
2023-03-15T15:05:29.077Z,8.68
2023-03-15T15:08:13.230Z,9.07
2023-03-15T15:10:42.827Z,8.40
2023-03-15T15:13:27.468Z,8.00
2023-03-15T15:15:56.718Z,8.63
2023-03-15T15:18:32.641Z,8.48
2023-03-15T15:21:12.660Z,8.88
2023-03-15T15:23:59.526Z,9.57
2023-03-15T15:26:34.913Z,8.35
2023-03-15T15:31:31.546Z,7.55
2023-03-15T15:33:58.923Z,8.55
2023-03-15T15:36:33.854Z,7.68
2023-03-15T15:39:07.537Z,8.85
2023-03-15T15:41:37.048Z,6.88
2023-03-15T15:44:04.382Z,9.43
2023-03-15T15:46:43.576Z,7.18
2023-03-15T15:49:11.590Z,8.00
2023-03-15T15:51:46.865Z,7.68
2023-03-15T15:56:48.834Z,7.63
2023-03-15T15:59:27.019Z,10.07
2023-03-15T16:02:02.854Z,10.55
2023-03-15T16:04:30.842Z,9.38
2023-03-15T16:07:02.093Z,8.45
2023-03-15T16:09:38.371Z,9.80
2023-03-15T16:12:16.342Z,9.63
2023-03-15T16:14:43.692Z,9.32
2023-03-15T16:17:22.508Z,7.82
2023-03-15T16:20:05.319Z,8.40
2023-03-15T16:22:39.481Z,8.27
2023-03-15T16:25:16.892Z,10.10
2023-03-15T16:27:45.792Z,8.65
2023-03-15T16:30:22.088Z,9.05
2023-03-15T16:32:57.190Z,8.18
2023-03-15T16:35:34.184Z,8.32
2023-03-15T16:38:04.629Z,9.48
2023-03-15T16:40:46.836Z,8.57
2023-03-15T16:43:14.926Z,8.02
2023-03-15T16:45:42.359Z,9.10
2023-03-15T16:48:09.675Z,10.23
2023-03-15T16:50:38.061Z,8.52
2023-03-15T16:53:08.170Z,8.00
2023-03-15T16:55:35.496Z,9.60
2023-03-15T16:58:05.021Z,8.77
2023-03-15T17:00:32.113Z,9.13
2023-03-15T17:03:00.385Z,9.38
2023-03-15T17:05:28.039Z,10.90
2023-03-15T17:07:56.609Z,9.68
2023-03-15T17:10:26.164Z,11.77
2023-03-15T17:12:54.198Z,10.77
2023-03-15T17:15:24.636Z,13.07
2023-03-15T17:17:57.889Z,11.68
2023-03-15T17:20:27.402Z,13.55
2023-03-15T17:23:02.650Z,12.60
2023-03-15T17:25:31.301Z,13.68
2023-03-15T17:28:01.478Z,11.35
2023-03-15T17:30:39.282Z,12.80
2023-03-15T17:33:12.931Z,13.18
2023-03-15T17:35:45.384Z,13.65
2023-03-15T17:38:23.021Z,13.88
2023-03-15T17:40:59.719Z,12.55
2023-03-15T17:43:31.940Z,14.07
2023-03-15T17:46:00.558Z,15.40
2023-03-15T17:48:27.547Z,16.70
2023-03-15T17:50:54.979Z,13.70
2023-03-15T17:53:24.565Z,15.20
2023-03-15T17:55:56.425Z,16.42
2023-03-15T17:58:24.848Z,16.55
2023-03-15T18:00:54.830Z,17.48
2023-03-15T18:03:25.345Z,19.08
2023-03-15T18:05:52.609Z,18.52
2023-03-15T18:08:21.592Z,17.42
2023-03-15T18:10:52.005Z,17.20
2023-03-15T18:13:21.732Z,17.88
2023-03-15T18:15:53.108Z,17.73
2023-03-15T18:18:20.750Z,18.85
2023-03-15T18:20:49.642Z,18.35
2023-03-15T18:23:18.112Z,18.48
2023-03-15T18:25:46.005Z,20.42
2023-03-15T18:28:12.942Z,18.88
2023-03-15T18:30:41.112Z,17.75
2023-03-15T18:33:12.542Z,19.40
2023-03-15T18:35:43.528Z,20.88
2023-03-15T18:38:11.329Z,19.13
2023-03-15T18:40:45.470Z,21.63
2023-03-15T18:43:17.842Z,17.98
2023-03-15T18:45:49.453Z,17.30
2023-03-15T18:48:19.579Z,19.75
2023-03-15T18:50:49.482Z,17.95
2023-03-15T18:53:20.164Z,17.50
2023-03-15T18:55:48.453Z,18.98
2023-03-15T18:58:18.594Z,17.98
2023-03-15T19:00:49.872Z,16.90
2023-03-15T19:03:20.257Z,17.58
2023-03-15T19:05:47.260Z,19.90
2023-03-15T19:08:14.604Z,16.02
2023-03-15T19:10:48.167Z,18.85
2023-03-15T19:13:26.851Z,17.55
2023-03-15T19:15:56.399Z,19.08
2023-03-15T19:18:24.124Z,22.10
2023-03-15T19:21:00.471Z,20.33
2023-03-15T19:23:31.694Z,19.10
2023-03-15T19:26:04.483Z,19.15
2023-03-15T19:28:33.293Z,17.50
2023-03-15T19:33:48.000Z,19.13
2023-03-15T19:36:15.125Z,19.55
2023-03-15T19:38:42.860Z,23.83
2023-03-15T19:41:13.099Z,16.92
2023-03-15T19:43:43.702Z,20.20
2023-03-15T19:46:13.759Z,19.92
2023-03-15T19:48:44.605Z,18.70
2023-03-15T19:51:16.816Z,19.40
2023-03-15T19:53:44.178Z,19.67
2023-03-15T19:56:12.065Z,20.15
2023-03-15T19:58:39.808Z,18.80
2023-03-15T20:01:06.628Z,19.10
2023-03-15T20:03:35.096Z,20.90
2023-03-15T20:06:12.428Z,19.35
2023-03-15T20:08:40.443Z,19.00
2023-03-15T20:11:07.496Z,18.85
2023-03-15T20:13:37.550Z,20.48
2023-03-15T20:16:06.184Z,20.13
2023-03-15T20:18:33.075Z,20.40
2023-03-15T20:20:59.887Z,19.98
2023-03-15T20:23:26.687Z,18.77
2023-03-15T20:26:03.691Z,20.02
2023-03-15T20:28:30.645Z,20.70
2023-03-15T20:30:58.056Z,18.40
2023-03-15T20:33:25.316Z,20.25
2023-03-15T20:35:53.360Z,21.45
2023-03-15T20:38:20.321Z,20.77
2023-03-15T20:40:46.987Z,21.92
2023-03-15T20:43:14.107Z,20.83
2023-03-15T20:45:41.244Z,21.45
2023-03-15T20:48:07.991Z,20.33
2023-03-15T20:50:34.765Z,21.50
2023-03-15T20:53:05.195Z,23.42
2023-03-15T20:55:32.114Z,24.13
2023-03-15T20:57:58.836Z,25.10
2023-03-15T21:00:27.516Z,24.45
2023-03-15T21:02:54.363Z,26.52
2023-03-15T21:05:21.450Z,25.63
2023-03-15T21:07:48.258Z,24.35
2023-03-15T21:10:15.100Z,25.05
2023-03-15T21:12:42.225Z,26.83
2023-03-15T21:15:09.148Z,25.25
2023-03-15T21:17:35.901Z,24.33
2023-03-15T21:20:05.685Z,25.75
2023-03-15T21:22:32.426Z,23.08
2023-03-15T21:24:59.166Z,25.95
2023-03-15T21:27:26.457Z,25.77
2023-03-15T21:29:53.736Z,25.13
2023-03-15T21:32:20.651Z,26.83
2023-03-15T21:34:47.286Z,24.95
2023-03-15T21:37:14.120Z,26.95
2023-03-15T21:39:41.150Z,26.48
2023-03-15T21:42:08.224Z,27.70
2023-03-15T21:44:34.984Z,26.10
2023-03-15T21:47:02.194Z,24.95
2023-03-15T21:49:29.233Z,24.58
2023-03-15T21:51:56.140Z,25.33
2023-03-15T21:54:22.916Z,26.08
2023-03-15T21:56:49.640Z,25.02
2023-03-15T21:59:16.286Z,27.48
2023-03-15T22:01:43.070Z,27.08
2023-03-15T22:04:10.215Z,24.98
2023-03-15T22:06:39.074Z,23.15
2023-03-15T22:09:05.707Z,25.30
2023-03-15T22:11:32.646Z,23.17
2023-03-15T22:13:59.378Z,23.48
2023-03-15T22:16:26.223Z,22.88
2023-03-15T22:18:53.058Z,24.20
2023-03-15T22:21:19.998Z,22.90
2023-03-15T22:23:46.660Z,24.70
2023-03-15T22:26:13.483Z,21.63
2023-03-15T22:28:40.186Z,24.00
2023-03-15T22:31:10.608Z,22.10
2023-03-15T22:33:37.349Z,22.77
2023-03-15T22:36:04.338Z,23.85
2023-03-15T22:38:37.676Z,22.42
2023-03-15T22:41:07.349Z,25.17
2023-03-15T22:43:34.525Z,24.27
2023-03-15T22:46:01.846Z,24.88
2023-03-15T22:48:28.834Z,21.83
2023-03-15T22:51:06.450Z,23.20
2023-03-15T22:53:34.024Z,23.23
2023-03-15T22:56:00.919Z,20.50
2023-03-15T22:58:27.875Z,26.42
2023-03-15T23:00:55.258Z,21.80
2023-03-15T23:03:22.240Z,20.98
2023-03-15T23:05:48.969Z,24.48
2023-03-15T23:08:15.785Z,23.20
2023-03-15T23:10:42.903Z,22.85
2023-03-15T23:13:09.790Z,23.48
2023-03-15T23:15:36.655Z,22.75
2023-03-15T23:18:03.614Z,20.02
2023-03-15T23:20:30.305Z,21.17
2023-03-15T23:22:57.183Z,20.73
2023-03-15T23:25:27.561Z,17.80
2023-03-15T23:27:54.565Z,18.73
2023-03-15T23:30:21.993Z,18.17
2023-03-15T23:32:51.883Z,18.10
2023-03-15T23:35:18.813Z,16.52
2023-03-15T23:37:45.586Z,17.23
2023-03-15T23:40:15.348Z,19.33
2023-03-15T23:42:45.702Z,16.85
2023-03-15T23:45:15.670Z,16.05
2023-03-15T23:47:42.694Z,16.77
2023-03-15T23:50:10.854Z,17.80
2023-03-15T23:52:37.664Z,17.90
2023-03-15T23:55:04.758Z,19.30
2023-03-15T23:57:31.624Z,18.20
2023-03-15T23:59:58.560Z,18.90
